sensor_id;sensor_type;location;lat;lon;timestamp;pressure;altitude;pressure_sealevel;temperature;humidity
17311;BME280;8773;43.300;0.394;2023-03-25T00:00:54;100331.56;;;10.21;66.15
17311;BME280;8773;43.300;0.394;2023-03-25T00:03:24;100328.91;;;10.11;66.36
17311;BME280;8773;43.300;0.394;2023-03-25T00:05:52;100328.19;;;10.09;66.38
17311;BME280;8773;43.300;0.394;2023-03-25T00:08:20;100350.34;;;10.00;67.32
17311;BME280;8773;43.300;0.394;2023-03-25T00:10:51;100367.03;;;9.92;66.86
17311;BME280;8773;43.300;0.394;2023-03-25T00:13:20;100372.88;;;9.86;67.18
17311;BME280;8773;43.300;0.394;2023-03-25T00:15:51;100370.69;;;9.91;66.89
17311;BME280;8773;43.300;0.394;2023-03-25T00:18:26;100363.38;;;9.93;66.70
17311;BME280;8773;43.300;0.394;2023-03-25T00:21:00;100356.94;;;9.96;65.93
17311;BME280;8773;43.300;0.394;2023-03-25T00:23:30;100346.63;;;9.82;66.23
17311;BME280;8773;43.300;0.394;2023-03-25T00:25:58;100352.66;;;9.84;66.25
17311;BME280;8773;43.300;0.394;2023-03-25T00:28:28;100353.78;;;9.81;65.87
17311;BME280;8773;43.300;0.394;2023-03-25T00:30:59;100361.81;;;9.51;66.60
17311;BME280;8773;43.300;0.394;2023-03-25T00:33:28;100353.09;;;9.49;66.53
17311;BME280;8773;43.300;0.394;2023-03-25T00:35:57;100357.06;;;9.54;66.58
17311;BME280;8773;43.300;0.394;2023-03-25T00:38:26;100360.16;;;9.59;66.18
17311;BME280;8773;43.300;0.394;2023-03-25T00:41:08;100358.06;;;9.63;65.95
17311;BME280;8773;43.300;0.394;2023-03-25T00:43:36;100357.41;;;9.70;65.04
17311;BME280;8773;43.300;0.394;2023-03-25T00:46:05;100350.13;;;9.82;64.87
17311;BME280;8773;43.300;0.394;2023-03-25T00:48:33;100342.47;;;9.89;65.03
17311;BME280;8773;43.300;0.394;2023-03-25T00:51:02;100346.09;;;9.88;64.76
17311;BME280;8773;43.300;0.394;2023-03-25T00:53:35;100336.16;;;9.99;64.33
17311;BME280;8773;43.300;0.394;2023-03-25T00:56:04;100330.69;;;10.01;64.69
17311;BME280;8773;43.300;0.394;2023-03-25T00:58:32;100339.13;;;10.06;65.06
17311;BME280;8773;43.300;0.394;2023-03-25T01:01:08;100335.38;;;10.18;64.39
17311;BME280;8773;43.300;0.394;2023-03-25T01:03:38;100336.78;;;10.22;64.64
17311;BME280;8773;43.300;0.394;2023-03-25T01:06:10;100340.81;;;10.26;63.86
17311;BME280;8773;43.300;0.394;2023-03-25T01:08:40;100351.94;;;10.22;63.65
17311;BME280;8773;43.300;0.394;2023-03-25T01:11:17;100343.22;;;10.20;63.85
17311;BME280;8773;43.300;0.394;2023-03-25T01:13:46;100347.16;;;10.25;63.47
17311;BME280;8773;43.300;0.394;2023-03-25T01:16:16;100349.97;;;10.14;62.93
17311;BME280;8773;43.300;0.394;2023-03-25T01:18:44;100351.34;;;10.08;62.87
17311;BME280;8773;43.300;0.394;2023-03-25T01:21:12;100361.88;;;10.10;63.00
17311;BME280;8773;43.300;0.394;2023-03-25T01:23:40;100357.69;;;10.17;62.56
17311;BME280;8773;43.300;0.394;2023-03-25T01:26:08;100356.44;;;10.21;61.96
17311;BME280;8773;43.300;0.394;2023-03-25T01:28:39;100353.47;;;10.24;62.30
17311;BME280;8773;43.300;0.394;2023-03-25T01:31:08;100352.94;;;10.21;62.13
17311;BME280;8773;43.300;0.394;2023-03-25T01:33:39;100351.94;;;10.22;61.84
17311;BME280;8773;43.300;0.394;2023-03-25T01:36:08;100343.50;;;10.26;61.24
17311;BME280;8773;43.300;0.394;2023-03-25T01:38:39;100339.72;;;10.38;61.46
17311;BME280;8773;43.300;0.394;2023-03-25T01:41:08;100345.47;;;10.43;60.67
17311;BME280;8773;43.300;0.394;2023-03-25T01:43:36;100343.81;;;10.52;60.62
17311;BME280;8773;43.300;0.394;2023-03-25T01:46:04;100332.56;;;10.39;60.51
17311;BME280;8773;43.300;0.394;2023-03-25T01:48:35;100328.63;;;10.14;61.10
17311;BME280;8773;43.300;0.394;2023-03-25T01:51:09;100329.59;;;10.32;60.71
17311;BME280;8773;43.300;0.394;2023-03-25T01:53:39;100320.19;;;10.28;61.10
17311;BME280;8773;43.300;0.394;2023-03-25T01:56:09;100319.09;;;10.21;60.81
17311;BME280;8773;43.300;0.394;2023-03-25T01:58:39;100329.44;;;10.24;60.87
17311;BME280;8773;43.300;0.394;2023-03-25T02:01:07;100336.19;;;10.28;61.11
17311;BME280;8773;43.300;0.394;2023-03-25T02:03:40;100329.75;;;10.40;61.31
17311;BME280;8773;43.300;0.394;2023-03-25T02:06:16;100334.38;;;10.48;59.90
17311;BME280;8773;43.300;0.394;2023-03-25T02:08:47;100332.00;;;10.45;60.13
17311;BME280;8773;43.300;0.394;2023-03-25T02:11:15;100331.72;;;10.38;60.19
17311;BME280;8773;43.300;0.394;2023-03-25T02:13:43;100333.13;;;10.42;60.06
17311;BME280;8773;43.300;0.394;2023-03-25T02:16:26;100319.63;;;10.34;60.09
17311;BME280;8773;43.300;0.394;2023-03-25T02:19:11;100319.91;;;10.22;60.27
17311;BME280;8773;43.300;0.394;2023-03-25T02:22:17;100313.44;;;10.24;59.46
17311;BME280;8773;43.300;0.394;2023-03-25T02:27:54;100309.50;;;9.59;60.66
17311;BME280;8773;43.300;0.394;2023-03-25T02:31:05;100301.25;;;9.62;60.89
17311;BME280;8773;43.300;0.394;2023-03-25T02:33:59;100296.09;;;9.70;60.93
17311;BME280;8773;43.300;0.394;2023-03-25T02:39:45;100304.66;;;9.84;60.52
17311;BME280;8773;43.300;0.394;2023-03-25T02:42:21;100302.59;;;9.87;60.63
17311;BME280;8773;43.300;0.394;2023-03-25T02:44:55;100293.00;;;9.85;60.48
17311;BME280;8773;43.300;0.394;2023-03-25T02:47:29;100283.88;;;9.78;60.45
17311;BME280;8773;43.300;0.394;2023-03-25T02:50:03;100286.53;;;9.68;60.95
17311;BME280;8773;43.300;0.394;2023-03-25T02:52:35;100270.78;;;9.55;61.39
17311;BME280;8773;43.300;0.394;2023-03-25T02:55:10;100268.41;;;9.62;61.58
17311;BME280;8773;43.300;0.394;2023-03-25T02:57:43;100268.94;;;9.56;61.41
17311;BME280;8773;43.300;0.394;2023-03-25T03:00:14;100264.88;;;9.52;61.12
17311;BME280;8773;43.300;0.394;2023-03-25T03:02:47;100272.72;;;9.53;61.61
17311;BME280;8773;43.300;0.394;2023-03-25T03:05:22;100271.72;;;9.44;61.75
17311;BME280;8773;43.300;0.394;2023-03-25T03:07:54;100286.47;;;9.49;61.58
17311;BME280;8773;43.300;0.394;2023-03-25T03:10:31;100292.19;;;9.44;61.64
17311;BME280;8773;43.300;0.394;2023-03-25T03:13:09;100302.28;;;9.40;61.21
17311;BME280;8773;43.300;0.394;2023-03-25T03:15:48;100291.34;;;9.43;61.23
17311;BME280;8773;43.300;0.394;2023-03-25T03:18:27;100304.53;;;9.45;61.27
17311;BME280;8773;43.300;0.394;2023-03-25T03:21:08;100299.22;;;9.45;61.12
17311;BME280;8773;43.300;0.394;2023-03-25T03:23:46;100292.09;;;9.55;61.26
17311;BME280;8773;43.300;0.394;2023-03-25T03:26:27;100289.59;;;9.63;61.27
17311;BME280;8773;43.300;0.394;2023-03-25T03:29:00;100287.81;;;9.73;60.44
17311;BME280;8773;43.300;0.394;2023-03-25T03:31:33;100286.13;;;9.72;60.85
17311;BME280;8773;43.300;0.394;2023-03-25T03:34:27;100278.41;;;9.79;60.66
17311;BME280;8773;43.300;0.394;2023-03-25T03:37:01;100272.25;;;9.79;60.58
17311;BME280;8773;43.300;0.394;2023-03-25T03:39:33;100271.81;;;9.73;60.44
17311;BME280;8773;43.300;0.394;2023-03-25T03:42:08;100253.00;;;9.75;60.90
17311;BME280;8773;43.300;0.394;2023-03-25T03:44:38;100260.56;;;9.70;60.60
17311;BME280;8773;43.300;0.394;2023-03-25T03:47:11;100264.78;;;9.72;60.59
17311;BME280;8773;43.300;0.394;2023-03-25T03:49:44;100265.91;;;9.70;60.52
17311;BME280;8773;43.300;0.394;2023-03-25T03:52:16;100260.56;;;9.70;61.15
17311;BME280;8773;43.300;0.394;2023-03-25T03:54:49;100259.97;;;9.57;61.26
17311;BME280;8773;43.300;0.394;2023-03-25T03:57:23;100261.53;;;9.59;61.08
17311;BME280;8773;43.300;0.394;2023-03-25T03:59:57;100270.38;;;9.60;60.66
17311;BME280;8773;43.300;0.394;2023-03-25T04:02:36;100268.38;;;9.52;61.04
17311;BME280;8773;43.300;0.394;2023-03-25T04:05:07;100263.00;;;9.42;61.03
17311;BME280;8773;43.300;0.394;2023-03-25T04:07:40;100261.72;;;9.37;61.30
17311;BME280;8773;43.300;0.394;2023-03-25T04:10:13;100261.31;;;9.32;61.56
17311;BME280;8773;43.300;0.394;2023-03-25T04:12:48;100265.22;;;9.28;61.99
17311;BME280;8773;43.300;0.394;2023-03-25T04:15:18;100265.75;;;9.22;61.67
17311;BME280;8773;43.300;0.394;2023-03-25T04:17:46;100276.50;;;9.10;62.02
17311;BME280;8773;43.300;0.394;2023-03-25T04:20:17;100286.72;;;9.05;62.11
17311;BME280;8773;43.300;0.394;2023-03-25T04:22:49;100269.56;;;8.68;62.85
17311;BME280;8773;43.300;0.394;2023-03-25T04:25:18;100289.75;;;8.70;62.88
17311;BME280;8773;43.300;0.394;2023-03-25T04:27:52;100294.38;;;8.48;63.64
17311;BME280;8773;43.300;0.394;2023-03-25T04:30:25;100288.06;;;8.49;63.92
17311;BME280;8773;43.300;0.394;2023-03-25T04:32:54;100288.06;;;8.49;63.92
17311;BME280;8773;43.300;0.394;2023-03-25T04:35:22;100291.25;;;8.84;63.17
17311;BME280;8773;43.300;0.394;2023-03-25T04:37:51;100272.22;;;8.98;62.61
17311;BME280;8773;43.300;0.394;2023-03-25T04:40:23;100278.78;;;8.85;62.33
17311;BME280;8773;43.300;0.394;2023-03-25T04:42:53;100280.22;;;8.98;62.54
17311;BME280;8773;43.300;0.394;2023-03-25T04:45:22;100285.03;;;9.04;62.05
17311;BME280;8773;43.300;0.394;2023-03-25T04:47:51;100301.06;;;9.14;61.81
17311;BME280;8773;43.300;0.394;2023-03-25T04:50:22;100306.34;;;9.04;61.74
17311;BME280;8773;43.300;0.394;2023-03-25T04:52:51;100306.34;;;9.04;61.37
17311;BME280;8773;43.300;0.394;2023-03-25T04:55:19;100317.69;;;9.06;61.50
17311;BME280;8773;43.300;0.394;2023-03-25T04:57:49;100320.38;;;9.06;61.54
17311;BME280;8773;43.300;0.394;2023-03-25T05:00:21;100321.72;;;9.01;61.75
17311;BME280;8773;43.300;0.394;2023-03-25T05:02:50;100321.38;;;8.85;61.54
17311;BME280;8773;43.300;0.394;2023-03-25T05:05:21;100320.13;;;8.89;62.06
17311;BME280;8773;43.300;0.394;2023-03-25T05:07:51;101181.13;;;8.90;62.16
17311;BME280;8773;43.300;0.394;2023-03-25T05:10:21;100333.31;;;8.90;62.07
17311;BME280;8773;43.300;0.394;2023-03-25T05:12:49;100333.00;;;8.84;62.27
17311;BME280;8773;43.300;0.394;2023-03-25T05:15:19;100336.44;;;8.74;62.00
17311;BME280;8773;43.300;0.394;2023-03-25T05:17:47;100336.31;;;8.76;62.14
17311;BME280;8773;43.300;0.394;2023-03-25T05:20:15;100323.63;;;8.48;62.82
17311;BME280;8773;43.300;0.394;2023-03-25T05:22:43;100332.00;;;8.64;63.00
17311;BME280;8773;43.300;0.394;2023-03-25T05:25:12;100333.13;;;8.82;62.20
17311;BME280;8773;43.300;0.394;2023-03-25T05:27:40;100333.84;;;8.84;62.07
17311;BME280;8773;43.300;0.394;2023-03-25T05:30:09;100336.13;;;8.89;62.10
17311;BME280;8773;43.300;0.394;2023-03-25T05:32:38;100344.03;;;8.79;62.14
17311;BME280;8773;43.300;0.394;2023-03-25T05:35:07;100344.28;;;8.76;61.93
17311;BME280;8773;43.300;0.394;2023-03-25T05:37:36;100346.56;;;8.81;61.80
17311;BME280;8773;43.300;0.394;2023-03-25T05:40:06;100346.66;;;8.58;62.20
17311;BME280;8773;43.300;0.394;2023-03-25T05:42:41;100348.81;;;8.43;62.66
17311;BME280;8773;43.300;0.394;2023-03-25T05:45:15;100354.13;;;8.43;62.94
17311;BME280;8773;43.300;0.394;2023-03-25T05:47:44;100363.22;;;8.41;62.67
17311;BME280;8773;43.300;0.394;2023-03-25T05:50:13;100362.97;;;8.44;62.70
17311;BME280;8773;43.300;0.394;2023-03-25T05:52:41;100375.06;;;8.37;62.38
17311;BME280;8773;43.300;0.394;2023-03-25T05:55:11;100377.38;;;8.41;62.74
17311;BME280;8773;43.300;0.394;2023-03-25T05:57:41;100394.78;;;8.46;62.58
17311;BME280;8773;43.300;0.394;2023-03-25T06:00:11;100390.19;;;8.25;62.62
17311;BME280;8773;43.300;0.394;2023-03-25T06:02:41;100383.69;;;8.07;63.16
17311;BME280;8773;43.300;0.394;2023-03-25T06:05:13;100386.69;;;8.25;63.06
17311;BME280;8773;43.300;0.394;2023-03-25T06:07:42;100390.91;;;8.38;62.96
17311;BME280;8773;43.300;0.394;2023-03-25T06:10:12;100387.06;;;8.09;63.11
17311;BME280;8773;43.300;0.394;2023-03-25T06:12:42;100394.22;;;8.08;63.47
17311;BME280;8773;43.300;0.394;2023-03-25T06:15:12;100388.50;;;8.24;62.92
17311;BME280;8773;43.300;0.394;2023-03-25T06:17:41;100387.78;;;8.33;63.16
17311;BME280;8773;43.300;0.394;2023-03-25T06:20:14;100379.91;;;8.43;62.35
17311;BME280;8773;43.300;0.394;2023-03-25T06:22:45;100392.03;;;8.57;61.75
17311;BME280;8773;43.300;0.394;2023-03-25T06:25:15;100390.59;;;8.53;62.15
17311;BME280;8773;43.300;0.394;2023-03-25T06:27:45;100385.75;;;8.58;61.76
17311;BME280;8773;43.300;0.394;2023-03-25T06:30:15;100390.53;;;8.75;61.91
17311;BME280;8773;43.300;0.394;2023-03-25T06:32:44;100388.06;;;8.83;61.22
17311;BME280;8773;43.300;0.394;2023-03-25T06:35:13;100384.44;;;8.84;60.95
17311;BME280;8773;43.300;0.394;2023-03-25T06:37:45;100376.25;;;8.76;61.61
17311;BME280;8773;43.300;0.394;2023-03-25T06:40:14;100380.53;;;8.88;61.10
17311;BME280;8773;43.300;0.394;2023-03-25T06:42:42;100375.94;;;8.90;61.21
17311;BME280;8773;43.300;0.394;2023-03-25T06:45:11;100373.13;;;8.92;60.80
17311;BME280;8773;43.300;0.394;2023-03-25T06:47:39;100370.66;;;8.79;61.38
17311;BME280;8773;43.300;0.394;2023-03-25T06:50:08;100380.59;;;8.77;61.68
17311;BME280;8773;43.300;0.394;2023-03-25T06:52:38;100374.50;;;8.86;61.23
17311;BME280;8773;43.300;0.394;2023-03-25T06:55:06;100384.41;;;9.05;60.60
17311;BME280;8773;43.300;0.394;2023-03-25T06:57:34;100382.81;;;9.14;60.52
17311;BME280;8773;43.300;0.394;2023-03-25T07:00:04;100376.63;;;9.34;59.80
17311;BME280;8773;43.300;0.394;2023-03-25T07:02:32;100370.13;;;9.27;60.18
17311;BME280;8773;43.300;0.394;2023-03-25T07:05:00;100365.50;;;9.29;60.06
17311;BME280;8773;43.300;0.394;2023-03-25T07:07:28;100364.28;;;9.33;59.35
17311;BME280;8773;43.300;0.394;2023-03-25T07:09:58;100363.56;;;9.10;59.62
17311;BME280;8773;43.300;0.394;2023-03-25T07:12:26;100363.13;;;9.96;59.04
17311;BME280;8773;43.300;0.394;2023-03-25T07:14:55;100349.13;;;10.71;56.34
17311;BME280;8773;43.300;0.394;2023-03-25T07:17:25;100355.03;;;11.51;53.64
17311;BME280;8773;43.300;0.394;2023-03-25T07:19:53;100351.03;;;11.92;51.70
17311;BME280;8773;43.300;0.394;2023-03-25T07:22:21;100342.38;;;12.61;51.96
17311;BME280;8773;43.300;0.394;2023-03-25T07:24:49;100336.88;;;13.06;50.58
17311;BME280;8773;43.300;0.394;2023-03-25T07:27:19;100322.41;;;13.59;48.11
17311;BME280;8773;43.300;0.394;2023-03-25T07:29:47;100320.28;;;14.13;47.68
17311;BME280;8773;43.300;0.394;2023-03-25T07:32:15;100308.56;;;14.54;45.59
17311;BME280;8773;43.300;0.394;2023-03-25T07:34:43;100314.59;;;14.48;45.84
17311;BME280;8773;43.300;0.394;2023-03-25T07:37:11;100314.59;;;14.48;45.84
17311;BME280;8773;43.300;0.394;2023-03-25T07:39:39;100308.88;;;14.67;45.98
17311;BME280;8773;43.300;0.394;2023-03-25T07:42:07;100319.97;;;14.64;45.11
17311;BME280;8773;43.300;0.394;2023-03-25T07:44:36;100318.28;;;14.71;44.98
17311;BME280;8773;43.300;0.394;2023-03-25T07:47:04;100312.59;;;14.99;45.04
17311;BME280;8773;43.300;0.394;2023-03-25T07:49:32;100313.41;;;15.16;45.14
17311;BME280;8773;43.300;0.394;2023-03-25T07:52:01;100311.69;;;15.31;44.63
17311;BME280;8773;43.300;0.394;2023-03-25T07:54:29;100310.59;;;15.48;44.87
17311;BME280;8773;43.300;0.394;2023-03-25T07:56:57;100315.53;;;15.36;43.84
17311;BME280;8773;43.300;0.394;2023-03-25T07:59:25;100304.97;;;15.27;44.35
17311;BME280;8773;43.300;0.394;2023-03-25T08:01:56;100312.06;;;15.12;44.28
17311;BME280;8773;43.300;0.394;2023-03-25T08:04:24;100310.75;;;14.75;44.40
17311;BME280;8773;43.300;0.394;2023-03-25T08:06:52;100311.41;;;14.69;44.78
17311;BME280;8773;43.300;0.394;2023-03-25T08:09:20;100305.38;;;14.75;44.58
17311;BME280;8773;43.300;0.394;2023-03-25T08:11:48;100300.81;;;14.59;43.71
17311;BME280;8773;43.300;0.394;2023-03-25T08:14:17;100304.88;;;14.55;45.27
17311;BME280;8773;43.300;0.394;2023-03-25T08:16:45;100303.00;;;14.64;46.27
17311;BME280;8773;43.300;0.394;2023-03-25T08:19:14;100308.03;;;14.67;45.53
17311;BME280;8773;43.300;0.394;2023-03-25T08:21:42;100300.00;;;14.83;45.55
17311;BME280;8773;43.300;0.394;2023-03-25T08:24:13;100303.38;;;14.77;45.54
17311;BME280;8773;43.300;0.394;2023-03-25T08:26:41;100302.38;;;14.78;44.64
17311;BME280;8773;43.300;0.394;2023-03-25T08:29:09;100312.28;;;14.86;44.77
17311;BME280;8773;43.300;0.394;2023-03-25T08:31:37;100298.31;;;14.90;45.03
17311;BME280;8773;43.300;0.394;2023-03-25T08:34:06;100306.19;;;15.08;44.39
17311;BME280;8773;43.300;0.394;2023-03-25T08:36:35;100307.84;;;15.09;44.60
17311;BME280;8773;43.300;0.394;2023-03-25T08:39:05;100309.16;;;15.29;44.52
17311;BME280;8773;43.300;0.394;2023-03-25T08:41:38;100288.75;;;15.43;44.12
17311;BME280;8773;43.300;0.394;2023-03-25T08:44:06;100293.84;;;15.38;44.67
17311;BME280;8773;43.300;0.394;2023-03-25T08:46:34;100280.38;;;15.38;43.51
17311;BME280;8773;43.300;0.394;2023-03-25T08:49:03;100284.22;;;15.44;43.64
17311;BME280;8773;43.300;0.394;2023-03-25T08:51:32;100289.72;;;15.58;43.34
17311;BME280;8773;43.300;0.394;2023-03-25T08:54:01;100294.09;;;15.59;42.09
17311;BME280;8773;43.300;0.394;2023-03-25T08:56:29;100279.91;;;15.34;42.37
17311;BME280;8773;43.300;0.394;2023-03-25T08:58:57;100275.84;;;15.38;42.75
17311;BME280;8773;43.300;0.394;2023-03-25T09:01:25;100268.47;;;15.71;42.78
17311;BME280;8773;43.300;0.394;2023-03-25T09:03:53;100265.06;;;15.86;41.32
17311;BME280;8773;43.300;0.394;2023-03-25T09:06:23;100260.44;;;15.94;40.42
17311;BME280;8773;43.300;0.394;2023-03-25T09:08:52;100247.09;;;16.01;41.45
17311;BME280;8773;43.300;0.394;2023-03-25T09:11:23;100241.69;;;16.47;42.03
17311;BME280;8773;43.300;0.394;2023-03-25T09:14:03;100238.25;;;16.76;41.12
17311;BME280;8773;43.300;0.394;2023-03-25T09:16:31;100221.06;;;16.91;39.46
17311;BME280;8773;43.300;0.394;2023-03-25T09:19:00;100215.59;;;17.14;39.93
17311;BME280;8773;43.300;0.394;2023-03-25T09:21:28;100215.00;;;17.33;39.34
17311;BME280;8773;43.300;0.394;2023-03-25T09:23:57;100209.41;;;17.20;38.58
17311;BME280;8773;43.300;0.394;2023-03-25T09:26:26;100223.38;;;16.80;38.89
17311;BME280;8773;43.300;0.394;2023-03-25T09:28:54;100207.13;;;17.02;39.25
17311;BME280;8773;43.300;0.394;2023-03-25T09:31:22;100209.97;;;17.30;38.64
17311;BME280;8773;43.300;0.394;2023-03-25T09:33:51;100211.91;;;17.51;38.13
17311;BME280;8773;43.300;0.394;2023-03-25T09:36:19;100219.84;;;17.38;36.38
17311;BME280;8773;43.300;0.394;2023-03-25T09:38:47;100223.00;;;17.27;36.56
17311;BME280;8773;43.300;0.394;2023-03-25T09:41:32;100231.44;;;17.68;37.47
17311;BME280;8773;43.300;0.394;2023-03-25T09:44:13;100239.47;;;17.97;35.93
17311;BME280;8773;43.300;0.394;2023-03-25T09:46:44;100238.81;;;17.95;35.48
17311;BME280;8773;43.300;0.394;2023-03-25T09:49:16;100232.47;;;17.67;36.33
17311;BME280;8773;43.300;0.394;2023-03-25T09:51:47;100232.66;;;17.51;37.24
17311;BME280;8773;43.300;0.394;2023-03-25T09:54:19;100223.09;;;17.48;37.07
17311;BME280;8773;43.300;0.394;2023-03-25T09:56:52;100234.16;;;17.53;37.22
17311;BME280;8773;43.300;0.394;2023-03-25T09:59:26;100232.97;;;17.41;37.07
17311;BME280;8773;43.300;0.394;2023-03-25T10:02:00;100234.34;;;17.37;37.24
17311;BME280;8773;43.300;0.394;2023-03-25T10:04:43;100242.00;;;17.33;37.26
17311;BME280;8773;43.300;0.394;2023-03-25T10:07:23;100241.78;;;17.50;37.71
17311;BME280;8773;43.300;0.394;2023-03-25T10:09:59;100239.00;;;17.58;37.27
17311;BME280;8773;43.300;0.394;2023-03-25T10:12:39;100235.63;;;17.70;37.39
17311;BME280;8773;43.300;0.394;2023-03-25T10:15:16;100238.44;;;17.48;36.68
17311;BME280;8773;43.300;0.394;2023-03-25T13:43:59;99874.78;;;20.73;nan
17311;BME280;8773;43.300;0.394;2023-03-25T13:46:34;99863.94;;;21.05;nan
17311;BME280;8773;43.300;0.394;2023-03-25T13:49:08;99860.59;;;20.71;nan
17311;BME280;8773;43.300;0.394;2023-03-25T13:51:42;99855.13;;;19.95;nan
17311;BME280;8773;43.300;0.394;2023-03-25T13:54:13;99853.56;;;19.61;nan
17311;BME280;8773;43.300;0.394;2023-03-25T13:56:57;99852.34;;;19.44;nan
17311;BME280;8773;43.300;0.394;2023-03-25T13:59:55;99839.81;;;19.62;nan
17311;BME280;8773;43.300;0.394;2023-03-25T14:02:38;99832.44;;;19.76;nan
17311;BME280;8773;43.300;0.394;2023-03-25T14:05:28;99830.13;;;19.86;nan
17311;BME280;8773;43.300;0.394;2023-03-25T14:08:25;99833.25;;;19.90;nan
17311;BME280;8773;43.300;0.394;2023-03-25T14:11:11;99829.81;;;19.56;nan
17311;BME280;8773;43.300;0.394;2023-03-25T14:13:49;99819.41;;;19.40;nan
17311;BME280;8773;43.300;0.394;2023-03-25T14:16:21;99810.47;;;19.46;nan
17311;BME280;8773;43.300;0.394;2023-03-25T14:18:54;99806.16;;;19.90;nan
17311;BME280;8773;43.300;0.394;2023-03-25T14:21:30;99811.50;;;19.45;nan
17311;BME280;8773;43.300;0.394;2023-03-25T14:24:03;99810.69;;;19.25;nan
17311;BME280;8773;43.300;0.394;2023-03-25T14:26:33;99814.41;;;19.50;nan
17311;BME280;8773;43.300;0.394;2023-03-25T14:29:07;99805.66;;;19.48;nan
17311;BME280;8773;43.300;0.394;2023-03-25T18:10:18;99392.53;;;15.38;nan
17311;BME280;8773;43.300;0.394;2023-03-25T18:12:47;99657.69;;;17.10;nan
17311;BME280;8773;43.300;0.394;2023-03-25T18:15:15;99642.75;;;17.14;nan
17311;BME280;8773;43.300;0.394;2023-03-25T18:17:43;99631.53;;;17.10;nan
17311;BME280;8773;43.300;0.394;2023-03-25T18:20:14;99628.38;;;17.00;nan
17311;BME280;8773;43.300;0.394;2023-03-25T18:22:43;99628.31;;;16.93;nan
17311;BME280;8773;43.300;0.394;2023-03-25T18:25:12;99622.72;;;16.95;nan
17311;BME280;8773;43.300;0.394;2023-03-25T18:27:41;99621.22;;;16.86;nan
17311;BME280;8773;43.300;0.394;2023-03-25T18:30:19;99627.94;;;16.96;nan
17311;BME280;8773;43.300;0.394;2023-03-25T18:32:49;99628.53;;;16.92;nan
17311;BME280;8773;43.300;0.394;2023-03-25T18:35:17;99628.09;;;16.88;nan
17311;BME280;8773;43.300;0.394;2023-03-25T18:37:45;99620.16;;;16.80;nan
17311;BME280;8773;43.300;0.394;2023-03-25T18:40:16;99619.97;;;16.82;nan
17311;BME280;8773;43.300;0.394;2023-03-25T18:42:48;99624.28;;;16.76;nan
17311;BME280;8773;43.300;0.394;2023-03-25T18:45:17;99623.78;;;16.66;nan
17311;BME280;8773;43.300;0.394;2023-03-25T18:47:45;99622.09;;;16.58;nan
17311;BME280;8773;43.300;0.394;2023-03-25T18:50:16;99621.41;;;16.50;nan
17311;BME280;8773;43.300;0.394;2023-03-25T18:52:44;99620.75;;;16.48;nan
17311;BME280;8773;43.300;0.394;2023-03-25T18:55:12;99605.31;;;16.35;nan
17311;BME280;8773;43.300;0.394;2023-03-25T18:57:41;99608.22;;;16.33;nan
17311;BME280;8773;43.300;0.394;2023-03-25T19:00:16;99606.22;;;16.42;nan
17311;BME280;8773;43.300;0.394;2023-03-25T19:02:47;99595.63;;;16.41;nan
17311;BME280;8773;43.300;0.394;2023-03-25T19:05:15;99599.19;;;16.48;nan
17311;BME280;8773;43.300;0.394;2023-03-25T19:07:44;99586.75;;;16.47;nan
17311;BME280;8773;43.300;0.394;2023-03-25T19:10:18;99590.09;;;16.49;nan
17311;BME280;8773;43.300;0.394;2023-03-25T19:12:47;99590.91;;;16.49;nan
17311;BME280;8773;43.300;0.394;2023-03-25T19:15:18;99588.97;;;16.36;nan
17311;BME280;8773;43.300;0.394;2023-03-25T19:17:47;99590.38;;;16.32;nan
17311;BME280;8773;43.300;0.394;2023-03-25T19:20:17;99596.19;;;16.29;nan
17311;BME280;8773;43.300;0.394;2023-03-25T19:22:47;99594.94;;;16.32;nan
17311;BME280;8773;43.300;0.394;2023-03-25T19:25:16;99588.50;;;16.26;nan
17311;BME280;8773;43.300;0.394;2023-03-25T19:27:45;99578.31;;;16.22;nan
17311;BME280;8773;43.300;0.394;2023-03-25T19:30:16;99575.38;;;16.17;nan
17311;BME280;8773;43.300;0.394;2023-03-25T19:32:45;99545.38;;;15.98;nan
17311;BME280;8773;43.300;0.394;2023-03-25T19:35:15;99566.72;;;16.00;nan
17311;BME280;8773;43.300;0.394;2023-03-25T19:37:44;99571.88;;;15.95;nan
17311;BME280;8773;43.300;0.394;2023-03-25T19:40:18;99570.97;;;15.88;nan
17311;BME280;8773;43.300;0.394;2023-03-25T19:42:47;99565.03;;;15.71;nan
17311;BME280;8773;43.300;0.394;2023-03-25T19:45:17;99557.13;;;15.69;nan
17311;BME280;8773;43.300;0.394;2023-03-25T19:47:46;99556.75;;;15.72;nan
17311;BME280;8773;43.300;0.394;2023-03-25T19:50:16;99550.91;;;15.69;nan
17311;BME280;8773;43.300;0.394;2023-03-25T19:52:47;99557.13;;;15.69;nan
17311;BME280;8773;43.300;0.394;2023-03-25T19:55:16;99545.84;;;15.59;nan
17311;BME280;8773;43.300;0.394;2023-03-25T19:57:44;99547.16;;;15.42;nan
17311;BME280;8773;43.300;0.394;2023-03-25T20:00:15;99540.13;;;15.41;nan
17311;BME280;8773;43.300;0.394;2023-03-25T20:02:48;99554.81;;;15.45;nan
17311;BME280;8773;43.300;0.394;2023-03-25T20:05:18;99541.13;;;15.40;nan
17311;BME280;8773;43.300;0.394;2023-03-25T20:07:47;99546.06;;;15.36;nan
17311;BME280;8773;43.300;0.394;2023-03-25T20:10:18;99544.59;;;15.34;nan
17311;BME280;8773;43.300;0.394;2023-03-25T20:12:47;99550.47;;;15.23;nan
17311;BME280;8773;43.300;0.394;2023-03-25T20:15:17;99538.22;;;15.20;nan
17311;BME280;8773;43.300;0.394;2023-03-25T20:17:48;99529.81;;;15.09;nan
17311;BME280;8773;43.300;0.394;2023-03-25T20:20:18;99509.13;;;14.73;nan
17311;BME280;8773;43.300;0.394;2023-03-25T20:22:47;99533.88;;;14.83;nan
17311;BME280;8773;43.300;0.394;2023-03-25T20:25:15;99526.47;;;14.85;nan
17311;BME280;8773;43.300;0.394;2023-03-25T20:27:44;99517.38;;;14.57;nan
17311;BME280;8773;43.300;0.394;2023-03-25T20:30:14;99513.50;;;14.74;nan
17311;BME280;8773;43.300;0.394;2023-03-25T20:32:43;99519.19;;;15.00;nan
17311;BME280;8773;43.300;0.394;2023-03-25T20:35:17;99511.34;;;14.84;nan
17311;BME280;8773;43.300;0.394;2023-03-25T20:37:46;99500.00;;;14.53;nan
17311;BME280;8773;43.300;0.394;2023-03-25T20:40:16;99506.16;;;14.83;nan
17311;BME280;8773;43.300;0.394;2023-03-25T20:42:46;99507.84;;;15.05;nan
17311;BME280;8773;43.300;0.394;2023-03-25T20:45:16;99505.25;;;15.12;nan